sensor_id;sensor_type;location;lat;lon;timestamp;pressure;altitude;pressure_sealevel;temperature
76007;BMP280;64699;0.000;0.000;2023-04-24T00:00:10;99717.38;;;16.80
76007;BMP280;64699;0.000;0.000;2023-04-24T00:02:37;99721.38;;;16.79
76007;BMP280;64699;0.000;0.000;2023-04-24T00:05:04;99722.13;;;16.80
76007;BMP280;64699;0.000;0.000;2023-04-24T00:07:30;99721.38;;;16.79
76007;BMP280;64699;0.000;0.000;2023-04-24T00:09:55;99711.91;;;16.80
76007;BMP280;64699;0.000;0.000;2023-04-24T00:12:21;99710.41;;;16.79
76007;BMP280;64699;0.000;0.000;2023-04-24T00:14:46;99711.91;;;16.80
76007;BMP280;64699;0.000;0.000;2023-04-24T00:17:11;99716.63;;;16.80
76007;BMP280;64699;0.000;0.000;2023-04-24T00:19:36;99704.94;;;16.79
76007;BMP280;64699;0.000;0.000;2023-04-24T00:22:02;99704.94;;;16.79
76007;BMP280;64699;0.000;0.000;2023-04-24T00:24:27;99705.66;;;16.80
76007;BMP280;64699;0.000;0.000;2023-04-24T00:26:53;99702.19;;;16.79
76007;BMP280;64699;0.000;0.000;2023-04-24T00:29:18;99698.69;;;16.79
76007;BMP280;64699;0.000;0.000;2023-04-24T00:31:43;99688.47;;;16.79
76007;BMP280;64699;0.000;0.000;2023-04-24T00:34:08;99690.47;;;16.79
76007;BMP280;64699;0.000;0.000;2023-04-24T00:36:33;99676.03;;;16.78
76007;BMP280;64699;0.000;0.000;2023-04-24T00:38:58;99693.97;;;16.79
76007;BMP280;64699;0.000;0.000;2023-04-24T00:41:24;99690.47;;;16.79
76007;BMP280;64699;0.000;0.000;2023-04-24T00:43:50;99704.19;;;16.79
76007;BMP280;64699;0.000;0.000;2023-04-24T00:46:16;99704.94;;;16.79
76007;BMP280;64699;0.000;0.000;2023-04-24T00:48:41;99671.13;;;16.64
76007;BMP280;64699;0.000;0.000;2023-04-24T00:51:06;99697.97;;;16.78
76007;BMP280;64699;0.000;0.000;2023-04-24T00:53:32;99693.97;;;16.79
76007;BMP280;64699;0.000;0.000;2023-04-24T00:55:58;99700.91;;;16.80
76007;BMP280;64699;0.000;0.000;2023-04-24T00:58:23;99695.22;;;16.78
76007;BMP280;64699;0.000;0.000;2023-04-24T01:00:50;99691.75;;;16.78
76007;BMP280;64699;0.000;0.000;2023-04-24T01:03:18;99689.03;;;16.78
76007;BMP280;64699;0.000;0.000;2023-04-24T01:05:43;99692.50;;;16.78
76007;BMP280;64699;0.000;0.000;2023-04-24T01:08:08;99695.22;;;16.78
76007;BMP280;64699;0.000;0.000;2023-04-24T01:10:34;99693.97;;;16.79
76007;BMP280;64699;0.000;0.000;2023-04-24T01:12:59;99695.22;;;16.78
76007;BMP280;64699;0.000;0.000;2023-04-24T01:15:25;99691.75;;;16.78
76007;BMP280;64699;0.000;0.000;2023-04-24T01:17:50;99691.75;;;16.78
76007;BMP280;64699;0.000;0.000;2023-04-24T01:20:15;99693.22;;;16.79
76007;BMP280;64699;0.000;0.000;2023-04-24T01:22:42;99676.03;;;16.78
76007;BMP280;64699;0.000;0.000;2023-04-24T01:25:07;99674.56;;;16.77
76007;BMP280;64699;0.000;0.000;2023-04-24T01:27:32;99665.59;;;16.77
76007;BMP280;64699;0.000;0.000;2023-04-24T01:29:57;99677.28;;;16.77
76007;BMP280;64699;0.000;0.000;2023-04-24T01:32:23;99670.34;;;16.76
76007;BMP280;64699;0.000;0.000;2023-04-24T01:34:49;99669.06;;;16.77
76007;BMP280;64699;0.000;0.000;2023-04-24T01:37:14;99666.31;;;16.77
76007;BMP280;64699;0.000;0.000;2023-04-24T01:39:40;99663.59;;;16.77
76007;BMP280;64699;0.000;0.000;2023-04-24T01:42:05;99667.81;;;16.78
76007;BMP280;64699;0.000;0.000;2023-04-24T01:44:32;99671.81;;;16.77
76007;BMP280;64699;0.000;0.000;2023-04-24T01:46:58;99676.56;;;16.77
76007;BMP280;64699;0.000;0.000;2023-04-24T01:49:23;99671.09;;;16.77
76007;BMP280;64699;0.000;0.000;2023-04-24T01:51:48;99669.06;;;16.77
76007;BMP280;64699;0.000;0.000;2023-04-24T01:54:13;99673.84;;;16.77
76007;BMP280;64699;0.000;0.000;2023-04-24T01:56:42;99666.31;;;16.77
76007;BMP280;64699;0.000;0.000;2023-04-24T01:59:08;99674.56;;;16.77
76007;BMP280;64699;0.000;0.000;2023-04-24T02:01:34;99674.56;;;16.77
76007;BMP280;64699;0.000;0.000;2023-04-24T02:04:01;99669.81;;;16.78
76007;BMP280;64699;0.000;0.000;2023-04-24T02:06:26;99660.84;;;16.77
76007;BMP280;64699;0.000;0.000;2023-04-24T02:08:51;99629.81;;;16.62
76007;BMP280;64699;0.000;0.000;2023-04-24T02:11:16;99657.38;;;16.77
76007;BMP280;64699;0.000;0.000;2023-04-24T02:13:41;99653.16;;;16.76
76007;BMP280;64699;0.000;0.000;2023-04-24T02:16:07;99646.41;;;16.77
76007;BMP280;64699;0.000;0.000;2023-04-24T02:18:32;99648.41;;;16.76
76007;BMP280;64699;0.000;0.000;2023-04-24T02:20:57;99646.41;;;16.77
76007;BMP280;64699;0.000;0.000;2023-04-24T02:23:22;99645.66;;;16.76
76007;BMP280;64699;0.000;0.000;2023-04-24T02:25:47;99648.41;;;16.76
76007;BMP280;64699;0.000;0.000;2023-04-24T02:28:13;99651.13;;;16.76
76007;BMP280;64699;0.000;0.000;2023-04-24T02:30:39;99653.88;;;16.76
76007;BMP280;64699;0.000;0.000;2023-04-24T02:33:04;99651.13;;;16.76
76007;BMP280;64699;0.000;0.000;2023-04-24T02:35:29;99646.91;;;16.75
76007;BMP280;64699;0.000;0.000;2023-04-24T02:37:55;99635.94;;;16.75
76007;BMP280;64699;0.000;0.000;2023-04-24T02:40:20;99638.69;;;16.75
76007;BMP280;64699;0.000;0.000;2023-04-24T02:42:45;99636.69;;;16.76
76007;BMP280;64699;0.000;0.000;2023-04-24T02:45:10;99628.47;;;16.76
76007;BMP280;64699;0.000;0.000;2023-04-24T02:47:35;99628.47;;;16.76
76007;BMP280;64699;0.000;0.000;2023-04-24T02:50:01;99632.47;;;16.75
76007;BMP280;64699;0.000;0.000;2023-04-24T02:52:26;99627.72;;;16.75
76007;BMP280;64699;0.000;0.000;2023-04-24T02:54:52;99623.00;;;16.76
76007;BMP280;64699;0.000;0.000;2023-04-24T02:57:18;99625.72;;;16.76
76007;BMP280;64699;0.000;0.000;2023-04-24T02:59:43;99623.00;;;16.76
76007;BMP280;64699;0.000;0.000;2023-04-24T03:02:09;99617.50;;;16.76
76007;BMP280;64699;0.000;0.000;2023-04-24T03:04:34;99623.72;;;16.76
76007;BMP280;64699;0.000;0.000;2023-04-24T03:06:59;99620.97;;;16.76
76007;BMP280;64699;0.000;0.000;2023-04-24T03:09:24;99626.44;;;16.76
76007;BMP280;64699;0.000;0.000;2023-04-24T03:11:49;99629.19;;;16.76
76007;BMP280;64699;0.000;0.000;2023-04-24T03:14:15;99617.50;;;16.76
76007;BMP280;64699;0.000;0.000;2023-04-24T03:16:40;99626.44;;;16.76
76007;BMP280;64699;0.000;0.000;2023-04-24T03:19:05;99626.44;;;16.76
76007;BMP280;64699;0.000;0.000;2023-04-24T03:21:31;99623.00;;;16.76
76007;BMP280;64699;0.000;0.000;2023-04-24T03:23:56;99623.72;;;16.76
76007;BMP280;64699;0.000;0.000;2023-04-24T03:26:21;99623.00;;;16.76
76007;BMP280;64699;0.000;0.000;2023-04-24T03:28:46;99623.72;;;16.76
76007;BMP280;64699;0.000;0.000;2023-04-24T03:31:11;99629.19;;;16.76
76007;BMP280;64699;0.000;0.000;2023-04-24T03:33:37;99626.44;;;16.76
76007;BMP280;64699;0.000;0.000;2023-04-24T03:36:02;99623.72;;;16.76
76007;BMP280;64699;0.000;0.000;2023-04-24T03:38:27;99627.19;;;16.77
76007;BMP280;64699;0.000;0.000;2023-04-24T03:40:53;99628.47;;;16.76
76007;BMP280;64699;0.000;0.000;2023-04-24T03:43:18;99633.97;;;16.76
76007;BMP280;64699;0.000;0.000;2023-04-24T03:45:43;99630.47;;;16.75
76007;BMP280;64699;0.000;0.000;2023-04-24T03:48:08;99624.97;;;16.75
76007;BMP280;64699;0.000;0.000;2023-04-24T03:50:34;99629.19;;;16.76
76007;BMP280;64699;0.000;0.000;2023-04-24T03:52:59;99629.19;;;16.76
76007;BMP280;64699;0.000;0.000;2023-04-24T03:55:24;99629.19;;;16.76
76007;BMP280;64699;0.000;0.000;2023-04-24T03:57:49;99623.72;;;16.76
76007;BMP280;64699;0.000;0.000;2023-04-24T04:00:15;99629.19;;;16.76
76007;BMP280;64699;0.000;0.000;2023-04-24T04:02:40;99633.97;;;16.76
76007;BMP280;64699;0.000;0.000;2023-04-24T04:05:05;99633.22;;;16.75
76007;BMP280;64699;0.000;0.000;2023-04-24T04:07:31;99636.69;;;16.76
76007;BMP280;64699;0.000;0.000;2023-04-24T04:09:56;99631.22;;;16.76
76007;BMP280;64699;0.000;0.000;2023-04-24T04:12:21;99633.22;;;16.75
76007;BMP280;64699;0.000;0.000;2023-04-24T04:14:46;99639.44;;;16.76
76007;BMP280;64699;0.000;0.000;2023-04-24T04:17:11;99633.97;;;16.76
76007;BMP280;64699;0.000;0.000;2023-04-24T04:19:37;99647.69;;;16.76
76007;BMP280;64699;0.000;0.000;2023-04-24T04:22:02;99649.66;;;16.75
76007;BMP280;64699;0.000;0.000;2023-04-24T04:24:27;99653.16;;;16.76
76007;BMP280;64699;0.000;0.000;2023-04-24T04:26:53;99656.63;;;16.76
76007;BMP280;64699;0.000;0.000;2023-04-24T04:29:21;99652.41;;;16.75
76007;BMP280;64699;0.000;0.000;2023-04-24T04:31:47;99655.91;;;16.76
76007;BMP280;64699;0.000;0.000;2023-04-24T04:34:12;99648.94;;;16.75
76007;BMP280;64699;0.000;0.000;2023-04-24T04:36:39;99639.44;;;16.76
76007;BMP280;64699;0.000;0.000;2023-04-24T04:39:05;99639.97;;;16.74
76007;BMP280;64699;0.000;0.000;2023-04-24T04:41:30;99633.97;;;16.76
76007;BMP280;64699;0.000;0.000;2023-04-24T04:43:55;99644.19;;;16.75
76007;BMP280;64699;0.000;0.000;2023-04-24T04:46:23;99649.66;;;16.75
76007;BMP280;64699;0.000;0.000;2023-04-24T04:48:51;99639.44;;;16.76
76007;BMP280;64699;0.000;0.000;2023-04-24T04:51:16;99635.94;;;16.75
76007;BMP280;64699;0.000;0.000;2023-04-24T04:53:41;99633.97;;;16.76
76007;BMP280;64699;0.000;0.000;2023-04-24T04:56:06;99641.44;;;16.75
76007;BMP280;64699;0.000;0.000;2023-04-24T04:58:32;99636.69;;;16.76
76007;BMP280;64699;0.000;0.000;2023-04-24T05:00:58;99633.97;;;16.76
76007;BMP280;64699;0.000;0.000;2023-04-24T05:03:23;99637.41;;;16.76
76007;BMP280;64699;0.000;0.000;2023-04-24T05:05:48;99632.16;;;16.78
76007;BMP280;64699;0.000;0.000;2023-04-24T05:08:14;99632.00;;;16.84
76007;BMP280;64699;0.000;0.000;2023-04-24T05:10:39;99626.53;;;16.84
76007;BMP280;64699;0.000;0.000;2023-04-24T05:13:04;99634.03;;;16.83
76007;BMP280;64699;0.000;0.000;2023-04-24T05:15:30;99626.34;;;16.82
76007;BMP280;64699;0.000;0.000;2023-04-24T05:17:55;99625.59;;;16.81
76007;BMP280;64699;0.000;0.000;2023-04-24T05:20:20;99637.84;;;16.80
76007;BMP280;64699;0.000;0.000;2023-04-24T05:22:45;99633.63;;;16.79
76007;BMP280;64699;0.000;0.000;2023-04-24T05:25:11;99628.84;;;16.80
76007;BMP280;64699;0.000;0.000;2023-04-24T05:27:37;99632.88;;;16.79
76007;BMP280;64699;0.000;0.000;2023-04-24T05:30:02;99627.38;;;16.79
76007;BMP280;64699;0.000;0.000;2023-04-24T05:32:28;99632.16;;;16.78
76007;BMP280;64699;0.000;0.000;2023-04-24T05:34:53;99626.66;;;16.78
76007;BMP280;64699;0.000;0.000;2023-04-24T05:37:18;99625.38;;;16.79
76007;BMP280;64699;0.000;0.000;2023-04-24T05:39:43;99610.19;;;16.78
76007;BMP280;64699;0.000;0.000;2023-04-24T05:42:08;99618.44;;;16.78
76007;BMP280;64699;0.000;0.000;2023-04-24T05:44:34;99617.16;;;16.79
76007;BMP280;64699;0.000;0.000;2023-04-24T05:46:59;99607.47;;;16.78
76007;BMP280;64699;0.000;0.000;2023-04-24T05:49:25;99620.63;;;16.80
76007;BMP280;64699;0.000;0.000;2023-04-24T05:51:50;99622.66;;;16.79
76007;BMP280;64699;0.000;0.000;2023-04-24T05:54:16;99620.31;;;16.83
76007;BMP280;64699;0.000;0.000;2023-04-24T05:56:41;99616.09;;;16.82
76007;BMP280;64699;0.000;0.000;2023-04-24T05:59:06;99613.88;;;16.81
76007;BMP280;64699;0.000;0.000;2023-04-24T06:01:32;99618.63;;;16.80
76007;BMP280;64699;0.000;0.000;2023-04-24T06:03:58;99623.38;;;16.80
76007;BMP280;64699;0.000;0.000;2023-04-24T06:06:23;99629.59;;;16.80
76007;BMP280;64699;0.000;0.000;2023-04-24T06:08:49;99619.91;;;16.79
76007;BMP280;64699;0.000;0.000;2023-04-24T06:11:14;99621.16;;;16.78
76007;BMP280;64699;0.000;0.000;2023-04-24T06:13:39;99621.16;;;16.78
76007;BMP280;64699;0.000;0.000;2023-04-24T06:16:04;99621.91;;;16.79
76007;BMP280;64699;0.000;0.000;2023-04-24T06:18:30;99606.19;;;16.79
76007;BMP280;64699;0.000;0.000;2023-04-24T06:20:55;99604.72;;;16.78
76007;BMP280;64699;0.000;0.000;2023-04-24T06:23:20;99610.19;;;16.78
76007;BMP280;64699;0.000;0.000;2023-04-24T06:25:45;99606.19;;;16.79
76007;BMP280;64699;0.000;0.000;2023-04-24T06:28:12;99604.72;;;16.78
76007;BMP280;64699;0.000;0.000;2023-04-24T06:30:37;99603.44;;;16.79
76007;BMP280;64699;0.000;0.000;2023-04-24T06:33:02;99599.22;;;16.78
76007;BMP280;64699;0.000;0.000;2023-04-24T06:35:28;99595.22;;;16.79
76007;BMP280;64699;0.000;0.000;2023-04-24T06:37:53;99595.22;;;16.79
76007;BMP280;64699;0.000;0.000;2023-04-24T06:40:18;99588.25;;;16.78
76007;BMP280;64699;0.000;0.000;2023-04-24T06:42:43;99584.25;;;16.79
76007;BMP280;64699;0.000;0.000;2023-04-24T06:45:09;99586.25;;;16.79
76007;BMP280;64699;0.000;0.000;2023-04-24T06:47:35;99584.97;;;16.80
76007;BMP280;64699;0.000;0.000;2023-04-24T06:50:00;99581.50;;;16.79
76007;BMP280;64699;0.000;0.000;2023-04-24T06:52:25;99585.72;;;16.80
76007;BMP280;64699;0.000;0.000;2023-04-24T06:54:50;99580.22;;;16.80
76007;BMP280;64699;0.000;0.000;2023-04-24T06:57:17;99576.03;;;16.79
76007;BMP280;64699;0.000;0.000;2023-04-24T06:59:42;99580.22;;;16.80
76007;BMP280;64699;0.000;0.000;2023-04-24T07:02:08;99576.22;;;16.81
76007;BMP280;64699;0.000;0.000;2023-04-24T07:04:33;99575.47;;;16.81
76007;BMP280;64699;0.000;0.000;2023-04-24T07:06:58;99574.75;;;16.80
76007;BMP280;64699;0.000;0.000;2023-04-24T07:09:24;99574.75;;;16.80
76007;BMP280;64699;0.000;0.000;2023-04-24T07:11:50;99572.00;;;16.80
76007;BMP280;64699;0.000;0.000;2023-04-24T07:14:16;99570.75;;;16.81
76007;BMP280;64699;0.000;0.000;2023-04-24T07:16:41;99569.25;;;16.80
76007;BMP280;64699;0.000;0.000;2023-04-24T07:19:07;99576.97;;;16.82
76007;BMP280;64699;0.000;0.000;2023-04-24T07:21:32;99576.22;;;16.81
76007;BMP280;64699;0.000;0.000;2023-04-24T07:23:58;99563.97;;;16.82
76007;BMP280;64699;0.000;0.000;2023-04-24T07:26:23;99563.97;;;16.82
76007;BMP280;64699;0.000;0.000;2023-04-24T07:28:48;99562.50;;;16.81
76007;BMP280;64699;0.000;0.000;2023-04-24T07:31:13;99555.75;;;16.82
76007;BMP280;64699;0.000;0.000;2023-04-24T07:33:39;99562.50;;;16.81
76007;BMP280;64699;0.000;0.000;2023-04-24T07:36:04;99555.03;;;16.82
76007;BMP280;64699;0.000;0.000;2023-04-24T07:38:29;99565.25;;;16.81
76007;BMP280;64699;0.000;0.000;2023-04-24T07:40:54;99562.00;;;16.83
76007;BMP280;64699;0.000;0.000;2023-04-24T07:43:20;99555.75;;;16.82
76007;BMP280;64699;0.000;0.000;2023-04-24T07:45:46;99566.72;;;16.82
76007;BMP280;64699;0.000;0.000;2023-04-24T07:48:11;99561.25;;;16.82
76007;BMP280;64699;0.000;0.000;2023-04-24T07:50:39;99556.50;;;16.83
76007;BMP280;64699;0.000;0.000;2023-04-24T07:53:04;99561.41;;;16.84
76007;BMP280;64699;0.000;0.000;2023-04-24T07:55:29;99555.94;;;16.84
76007;BMP280;64699;0.000;0.000;2023-04-24T07:57:54;99551.91;;;16.85
76007;BMP280;64699;0.000;0.000;2023-04-24T08:00:20;99553.19;;;16.84
76007;BMP280;64699;0.000;0.000;2023-04-24T08:02:45;99549.72;;;16.84
76007;BMP280;64699;0.000;0.000;2023-04-24T08:05:11;99540.75;;;16.83
76007;BMP280;64699;0.000;0.000;2023-04-24T08:07:36;99543.50;;;16.83
76007;BMP280;64699;0.000;0.000;2023-04-24T08:10:02;99525.63;;;16.69
76007;BMP280;64699;0.000;0.000;2023-04-24T08:12:30;99535.28;;;16.83
76007;BMP280;64699;0.000;0.000;2023-04-24T08:14:55;99536.00;;;16.84
76007;BMP280;64699;0.000;0.000;2023-04-24T08:17:20;99536.72;;;16.84
76007;BMP280;64699;0.000;0.000;2023-04-24T08:19:46;99535.28;;;16.83
76007;BMP280;64699;0.000;0.000;2023-04-24T08:22:13;99538.03;;;16.83
76007;BMP280;64699;0.000;0.000;2023-04-24T08:24:39;99538.03;;;16.83
76007;BMP280;64699;0.000;0.000;2023-04-24T08:27:04;99531.81;;;16.83
76007;BMP280;64699;0.000;0.000;2023-04-24T08:29:29;99549.00;;;16.83
76007;BMP280;64699;0.000;0.000;2023-04-24T08:31:55;99532.53;;;16.83
76007;BMP280;64699;0.000;0.000;2023-04-24T08:34:21;99528.31;;;16.82
76007;BMP280;64699;0.000;0.000;2023-04-24T08:36:46;99518.81;;;16.83
76007;BMP280;64699;0.000;0.000;2023-04-24T08:39:11;99518.81;;;16.83
76007;BMP280;64699;0.000;0.000;2023-04-24T08:41:36;99524.31;;;16.83
76007;BMP280;64699;0.000;0.000;2023-04-24T08:44:02;99535.28;;;16.83
76007;BMP280;64699;0.000;0.000;2023-04-24T08:46:28;99527.06;;;16.83
76007;BMP280;64699;0.000;0.000;2023-04-24T08:48:54;99527.06;;;16.83
76007;BMP280;64699;0.000;0.000;2023-04-24T08:51:20;99523.59;;;16.83
76007;BMP280;64699;0.000;0.000;2023-04-24T08:53:46;99518.81;;;16.83
76007;BMP280;64699;0.000;0.000;2023-04-24T08:56:12;99523.00;;;16.84
76007;BMP280;64699;0.000;0.000;2023-04-24T08:58:38;99525.03;;;16.84
76007;BMP280;64699;0.000;0.000;2023-04-24T09:01:03;99528.31;;;16.82
76007;BMP280;64699;0.000;0.000;2023-04-24T09:03:29;99532.53;;;16.83
76007;BMP280;64699;0.000;0.000;2023-04-24T09:05:55;99534.56;;;16.83
76007;BMP280;64699;0.000;0.000;2023-04-24T09:08:20;99527.06;;;16.83
76007;BMP280;64699;0.000;0.000;2023-04-24T09:10:48;99527.78;;;16.84
76007;BMP280;64699;0.000;0.000;2023-04-24T09:13:13;99535.28;;;16.83
76007;BMP280;64699;0.000;0.000;2023-04-24T09:15:39;99529.78;;;16.83
76007;BMP280;64699;0.000;0.000;2023-04-24T09:18:05;99521.56;;;16.83
76007;BMP280;64699;0.000;0.000;2023-04-24T09:20:32;99518.81;;;16.83
76007;BMP280;64699;0.000;0.000;2023-04-24T09:22:58;99516.25;;;16.85
76007;BMP280;64699;0.000;0.000;2023-04-24T09:25:32;99509.53;;;16.86
76007;BMP280;64699;0.000;0.000;2023-04-24T09:28:00;99515.00;;;16.86
76007;BMP280;64699;0.000;0.000;2023-04-24T09:30:25;99513.00;;;16.87
76007;BMP280;64699;0.000;0.000;2023-04-24T09:32:55;99515.00;;;16.86
76007;BMP280;64699;0.000;0.000;2023-04-24T09:35:34;99510.75;;;16.85
76007;BMP280;64699;0.000;0.000;2023-04-24T09:37:59;99511.53;;;16.86
76007;BMP280;64699;0.000;0.000;2023-04-24T09:40:25;99506.03;;;16.86
76007;BMP280;64699;0.000;0.000;2023-04-24T09:42:56;99501.81;;;16.85
76007;BMP280;64699;0.000;0.000;2023-04-24T09:45:22;99508.25;;;16.87
76007;BMP280;64699;0.000;0.000;2023-04-24T09:47:51;99504.59;;;16.92
76007;BMP280;64699;0.000;0.000;2023-04-24T09:50:16;99512.13;;;16.99
76007;BMP280;64699;0.000;0.000;2023-04-24T09:52:46;99497.75;;;17.06
76007;BMP280;64699;0.000;0.000;2023-04-24T09:55:19;99504.56;;;17.13
76007;BMP280;64699;0.000;0.000;2023-04-24T10:00:39;99498.91;;;17.18
76007;BMP280;64699;0.000;0.000;2023-04-24T10:03:05;99493.81;;;17.22
76007;BMP280;64699;0.000;0.000;2023-04-24T10:05:31;99487.25;;;17.25
76007;BMP280;64699;0.000;0.000;2023-04-24T10:08:07;99490.19;;;17.27
76007;BMP280;64699;0.000;0.000;2023-04-24T10:10:33;99498.94;;;17.26
76007;BMP280;64699;0.000;0.000;2023-04-24T10:12:59;99500.75;;;17.23
76007;BMP280;64699;0.000;0.000;2023-04-24T10:15:24;99492.34;;;17.21
76007;BMP280;64699;0.000;0.000;2023-04-24T10:17:51;99491.63;;;17.21
76007;BMP280;64699;0.000;0.000;2023-04-24T10:20:20;99485.91;;;17.19
76007;BMP280;64699;0.000;0.000;2023-04-24T10:22:48;99498.91;;;17.18
76007;BMP280;64699;0.000;0.000;2023-04-24T10:25:14;99488.81;;;17.13
76007;BMP280;64699;0.000;0.000;2023-04-24T10:27:41;99478.38;;;17.12
76007;BMP280;64699;0.000;0.000;2023-04-24T10:30:06;99485.69;;;17.09
76007;BMP280;64699;0.000;0.000;2023-04-24T10:32:32;99486.94;;;17.08
76007;BMP280;64699;0.000;0.000;2023-04-24T10:34:57;99473.56;;;17.05
76007;BMP280;64699;0.000;0.000;2023-04-24T10:37:23;99471.59;;;17.05
76007;BMP280;64699;0.000;0.000;2023-04-24T10:39:49;99465.16;;;17.03
76007;BMP280;64699;0.000;0.000;2023-04-24T10:42:16;99464.44;;;17.02
76007;BMP280;64699;0.000;0.000;2023-04-24T10:44:41;99462.97;;;17.01
76007;BMP280;64699;0.000;0.000;2023-04-24T10:47:07;99465.72;;;17.01
76007;BMP280;64699;0.000;0.000;2023-04-24T10:49:37;99469.72;;;17.00
76007;BMP280;64699;0.000;0.000;2023-04-24T10:52:03;99464.97;;;17.01
76007;BMP280;64699;0.000;0.000;2023-04-24T10:54:46;99464.22;;;17.00
76007;BMP280;64699;0.000;0.000;2023-04-24T10:59:46;99452.34;;;16.98
76007;BMP280;64699;0.000;0.000;2023-04-24T11:02:11;99456.53;;;16.99
76007;BMP280;64699;0.000;0.000;2023-04-24T11:04:40;99444.66;;;16.96
76007;BMP280;64699;0.000;0.000;2023-04-24T11:07:05;99448.88;;;16.97
76007;BMP280;64699;0.000;0.000;2023-04-24T11:09:31;99446.13;;;16.97
76007;BMP280;64699;0.000;0.000;2023-04-24T11:12:06;99450.13;;;16.96
76007;BMP280;64699;0.000;0.000;2023-04-24T11:17:37;99435.56;;;17.09
76007;BMP280;64699;0.000;0.000;2023-04-24T11:20:06;99441.28;;;17.18
76007;BMP280;64699;0.000;0.000;2023-04-24T11:22:33;99436.72;;;17.21
76007;BMP280;64699;0.000;0.000;2023-04-24T11:25:00;99444.41;;;17.22
76007;BMP280;64699;0.000;0.000;2023-04-24T11:27:27;99442.06;;;17.26
76007;BMP280;64699;0.000;0.000;2023-04-24T11:37:54;99435.47;;;17.29
76007;BMP280;64699;0.000;0.000;2023-04-24T11:40:20;99427.59;;;17.33
76007;BMP280;64699;0.000;0.000;2023-04-24T11:42:47;99433.09;;;17.33
76007;BMP280;64699;0.000;0.000;2023-04-24T11:45:13;99425.22;;;17.37
76007;BMP280;64699;0.000;0.000;2023-04-24T11:47:39;99440.25;;;17.36
76007;BMP280;64699;0.000;0.000;2023-04-24T11:50:05;99428.91;;;17.32
76007;BMP280;64699;0.000;0.000;2023-04-24T11:52:31;99427.59;;;17.33
76007;BMP280;64699;0.000;0.000;2023-04-24T11:54:56;99436.75;;;17.36
76007;BMP280;64699;0.000;0.000;2023-04-24T11:57:22;99426.53;;;17.36
76007;BMP280;64699;0.000;0.000;2023-04-24T11:59:49;99419.22;;;17.46
76007;BMP280;64699;0.000;0.000;2023-04-24T12:02:23;99428.19;;;17.46
76007;BMP280;64699;0.000;0.000;2023-04-24T12:04:49;99423.06;;;17.43
76007;BMP280;64699;0.000;0.000;2023-04-24T12:07:14;99418.47;;;17.38
76007;BMP280;64699;0.000;0.000;2023-04-24T12:09:47;99413.56;;;17.37
76007;BMP280;64699;0.000;0.000;2023-04-24T12:12:13;99411.50;;;17.37
76007;BMP280;64699;0.000;0.000;2023-04-24T12:14:49;99414.44;;;17.39
76007;BMP280;64699;0.000;0.000;2023-04-24T12:17:15;99409.69;;;17.40
76007;BMP280;64699;0.000;0.000;2023-04-24T12:19:44;99412.44;;;17.40
76007;BMP280;64699;0.000;0.000;2023-04-24T12:22:10;99403.84;;;17.43
76007;BMP280;64699;0.000;0.000;2023-04-24T12:24:35;99400.34;;;17.42
76007;BMP280;64699;0.000;0.000;2023-04-24T12:27:00;99399.09;;;17.43
76007;BMP280;64699;0.000;0.000;2023-04-24T12:29:26;99399.47;;;17.40
76007;BMP280;64699;0.000;0.000;2023-04-24T12:31:51;99386.97;;;17.39
76007;BMP280;64699;0.000;0.000;2023-04-24T12:34:17;99389.94;;;17.41
76007;BMP280;64699;0.000;0.000;2023-04-24T12:36:42;99384.47;;;17.41
76007;BMP280;64699;0.000;0.000;2023-04-24T12:39:14;99390.47;;;17.40
76007;BMP280;64699;0.000;0.000;2023-04-24T12:41:39;99381.31;;;17.37
76007;BMP280;64699;0.000;0.000;2023-04-24T12:44:13;99381.50;;;17.39
76007;BMP280;64699;0.000;0.000;2023-04-24T12:46:40;99378.75;;;17.39
76007;BMP280;64699;0.000;0.000;2023-04-24T12:49:05;99384.47;;;17.41
76007;BMP280;64699;0.000;0.000;2023-04-24T12:51:30;99396.13;;;17.41
76007;BMP280;64699;0.000;0.000;2023-04-24T12:53:56;99399.63;;;17.42
76007;BMP280;64699;0.000;0.000;2023-04-24T12:56:21;99411.91;;;17.41
76007;BMP280;64699;0.000;0.000;2023-04-24T12:58:47;99421.44;;;17.40
76007;BMP280;64699;0.000;0.000;2023-04-24T13:01:12;99433.13;;;17.41
76007;BMP280;64699;0.000;0.000;2023-04-24T13:03:37;99435.16;;;17.40
76007;BMP280;64699;0.000;0.000;2023-04-24T13:06:02;99432.19;;;17.38
76007;BMP280;64699;0.000;0.000;2023-04-24T13:08:27;99434.22;;;17.38
76007;BMP280;64699;0.000;0.000;2023-04-24T13:10:53;99440.41;;;17.38
76007;BMP280;64699;0.000;0.000;2023-04-24T13:13:18;99433.28;;;17.35
76007;BMP280;64699;0.000;0.000;2023-04-24T13:15:44;99440.25;;;17.36
76007;BMP280;64699;0.000;0.000;2023-04-24T13:18:09;99433.28;;;17.35
76007;BMP280;64699;0.000;0.000;2023-04-24T13:20:34;99438.94;;;17.37
76007;BMP280;64699;0.000;0.000;2023-04-24T13:23:00;99445.91;;;17.38
76007;BMP280;64699;0.000;0.000;2023-04-24T13:25:25;99451.41;;;17.38
76007;BMP280;64699;0.000;0.000;2023-04-24T13:27:51;99434.56;;;17.41
76007;BMP280;64699;0.000;0.000;2023-04-24T13:30:17;99438.63;;;17.41
76007;BMP280;64699;0.000;0.000;2023-04-24T13:32:42;99438.78;;;17.35
76007;BMP280;64699;0.000;0.000;2023-04-24T13:35:07;99426.16;;;17.32
76007;BMP280;64699;0.000;0.000;2023-04-24T13:37:33;99423.19;;;17.30
76007;BMP280;64699;0.000;0.000;2023-04-24T13:39:58;99399.25;;;17.31
76007;BMP280;64699;0.000;0.000;2023-04-24T13:42:23;99397.22;;;17.31
76007;BMP280;64699;0.000;0.000;2023-04-24T13:44:48;99382.78;;;17.31
76007;BMP280;64699;0.000;0.000;2023-04-24T13:47:14;99383.31;;;17.29
76007;BMP280;64699;0.000;0.000;2023-04-24T13:49:39;99372.31;;;17.29
76007;BMP280;64699;0.000;0.000;2023-04-24T13:52:04;99355.69;;;17.27
76007;BMP280;64699;0.000;0.000;2023-04-24T13:54:29;99358.44;;;17.27
76007;BMP280;64699;0.000;0.000;2023-04-24T13:56:57;99351.47;;;17.26
76007;BMP280;64699;0.000;0.000;2023-04-24T13:59:22;99355.50;;;17.25
76007;BMP280;64699;0.000;0.000;2023-04-24T14:01:47;99356.22;;;17.26
76007;BMP280;64699;0.000;0.000;2023-04-24T14:04:13;99356.22;;;17.26
76007;BMP280;64699;0.000;0.000;2023-04-24T14:06:38;99352.75;;;17.25
76007;BMP280;64699;0.000;0.000;2023-04-24T14:09:03;99350.72;;;17.26
76007;BMP280;64699;0.000;0.000;2023-04-24T14:11:28;99355.28;;;17.23
76007;BMP280;64699;0.000;0.000;2023-04-24T14:13:54;99338.81;;;17.23
76007;BMP280;64699;0.000;0.000;2023-04-24T14:16:21;99339.56;;;17.24
76007;BMP280;64699;0.000;0.000;2023-04-24T14:18:46;99343.59;;;17.23
76007;BMP280;64699;0.000;0.000;2023-04-24T14:21:11;99347.78;;;17.24
76007;BMP280;64699;0.000;0.000;2023-04-24T14:23:36;99347.78;;;17.24
76007;BMP280;64699;0.000;0.000;2023-04-24T14:26:02;99337.56;;;17.24
76007;BMP280;64699;0.000;0.000;2023-04-24T14:28:27;99341.56;;;17.23